sensor_id;sensor_type;location;lat;lon;timestamp;P1;durP1;ratioP1;P2;durP2;ratioP2
15102;SDS011;7652;53.584;9.998;2022-12-13T00:00:51;21.83;;;11.37;;
15102;SDS011;7652;53.584;9.998;2022-12-13T00:03:56;27.87;;;12.27;;
15102;SDS011;7652;53.584;9.998;2022-12-13T00:07:01;23.60;;;12.33;;
15102;SDS011;7652;53.584;9.998;2022-12-13T00:10:04;23.50;;;11.10;;
15102;SDS011;7652;53.584;9.998;2022-12-13T00:13:08;26.17;;;12.03;;
15102;SDS011;7652;53.584;9.998;2022-12-13T00:16:12;26.93;;;11.97;;
15102;SDS011;7652;53.584;9.998;2022-12-13T00:19:17;23.27;;;11.37;;
15102;SDS011;7652;53.584;9.998;2022-12-13T00:22:21;24.27;;;11.73;;
15102;SDS011;7652;53.584;9.998;2022-12-13T00:25:24;23.13;;;11.80;;
15102;SDS011;7652;53.584;9.998;2022-12-13T00:28:27;27.13;;;11.80;;
15102;SDS011;7652;53.584;9.998;2022-12-13T00:31:30;27.30;;;11.50;;
15102;SDS011;7652;53.584;9.998;2022-12-13T00:34:54;22.33;;;10.83;;
15102;SDS011;7652;53.584;9.998;2022-12-13T00:37:57;25.47;;;11.60;;
15102;SDS011;7652;53.584;9.998;2022-12-13T00:41:08;27.57;;;12.90;;
15102;SDS011;7652;53.584;9.998;2022-12-13T00:44:12;21.50;;;10.53;;
15102;SDS011;7652;53.584;9.998;2022-12-13T00:47:15;24.63;;;11.77;;
15102;SDS011;7652;53.584;9.998;2022-12-13T00:50:22;27.13;;;11.67;;
15102;SDS011;7652;53.584;9.998;2022-12-13T00:53:25;22.73;;;11.37;;
15102;SDS011;7652;53.584;9.998;2022-12-13T00:56:29;22.97;;;11.83;;
15102;SDS011;7652;53.584;9.998;2022-12-13T00:59:34;24.97;;;12.07;;
15102;SDS011;7652;53.584;9.998;2022-12-13T01:02:37;25.20;;;11.83;;
15102;SDS011;7652;53.584;9.998;2022-12-13T01:05:41;26.50;;;11.57;;
15102;SDS011;7652;53.584;9.998;2022-12-13T01:09:05;25.23;;;11.57;;
15102;SDS011;7652;53.584;9.998;2022-12-13T01:12:10;26.07;;;11.90;;
15102;SDS011;7652;53.584;9.998;2022-12-13T01:15:13;26.67;;;13.03;;
15102;SDS011;7652;53.584;9.998;2022-12-13T01:18:16;22.17;;;11.50;;
15102;SDS011;7652;53.584;9.998;2022-12-13T01:21:21;26.40;;;12.77;;
15102;SDS011;7652;53.584;9.998;2022-12-13T01:24:24;21.83;;;11.70;;
15102;SDS011;7652;53.584;9.998;2022-12-13T01:27:27;23.60;;;12.80;;
15102;SDS011;7652;53.584;9.998;2022-12-13T01:30:30;25.27;;;12.63;;
15102;SDS011;7652;53.584;9.998;2022-12-13T01:33:33;24.70;;;12.30;;
15102;SDS011;7652;53.584;9.998;2022-12-13T01:36:39;23.03;;;11.80;;
15102;SDS011;7652;53.584;9.998;2022-12-13T01:39:43;28.13;;;12.73;;
15102;SDS011;7652;53.584;9.998;2022-12-13T01:42:46;27.97;;;12.70;;
15102;SDS011;7652;53.584;9.998;2022-12-13T01:45:49;30.07;;;12.40;;
15102;SDS011;7652;53.584;9.998;2022-12-13T01:48:57;25.13;;;12.67;;
15102;SDS011;7652;53.584;9.998;2022-12-13T01:52:05;29.77;;;13.60;;
15102;SDS011;7652;53.584;9.998;2022-12-13T01:55:11;29.57;;;13.63;;
15102;SDS011;7652;53.584;9.998;2022-12-13T01:58:17;26.37;;;12.63;;
15102;SDS011;7652;53.584;9.998;2022-12-13T02:01:21;29.57;;;14.10;;
15102;SDS011;7652;53.584;9.998;2022-12-13T02:04:26;27.67;;;13.30;;
15102;SDS011;7652;53.584;9.998;2022-12-13T02:07:33;29.13;;;14.23;;
15102;SDS011;7652;53.584;9.998;2022-12-13T02:10:39;22.67;;;12.47;;
15102;SDS011;7652;53.584;9.998;2022-12-13T02:13:44;26.17;;;12.30;;
15102;SDS011;7652;53.584;9.998;2022-12-13T02:16:48;29.27;;;12.87;;
15102;SDS011;7652;53.584;9.998;2022-12-13T02:20:07;32.00;;;13.20;;
15102;SDS011;7652;53.584;9.998;2022-12-13T02:23:52;27.43;;;12.20;;
15102;SDS011;7652;53.584;9.998;2022-12-13T02:27:27;26.77;;;12.60;;
15102;SDS011;7652;53.584;9.998;2022-12-13T02:30:47;25.37;;;12.33;;
15102;SDS011;7652;53.584;9.998;2022-12-13T02:33:55;28.63;;;13.20;;
15102;SDS011;7652;53.584;9.998;2022-12-13T02:37:04;22.90;;;12.37;;
15102;SDS011;7652;53.584;9.998;2022-12-13T02:40:20;23.80;;;12.67;;
15102;SDS011;7652;53.584;9.998;2022-12-13T02:43:28;26.33;;;12.10;;
15102;SDS011;7652;53.584;9.998;2022-12-13T02:46:38;26.13;;;11.97;;
15102;SDS011;7652;53.584;9.998;2022-12-13T02:49:50;24.43;;;12.70;;
15102;SDS011;7652;53.584;9.998;2022-12-13T02:52:57;25.60;;;12.07;;
15102;SDS011;7652;53.584;9.998;2022-12-13T02:56:00;28.10;;;12.27;;
15102;SDS011;7652;53.584;9.998;2022-12-13T02:59:04;26.97;;;12.63;;
15102;SDS011;7652;53.584;9.998;2022-12-13T03:02:14;24.77;;;11.60;;
15102;SDS011;7652;53.584;9.998;2022-12-13T03:05:34;25.97;;;12.07;;
15102;SDS011;7652;53.584;9.998;2022-12-13T03:09:13;27.30;;;12.70;;
15102;SDS011;7652;53.584;9.998;2022-12-13T03:12:28;19.27;;;10.87;;
15102;SDS011;7652;53.584;9.998;2022-12-13T03:15:54;24.80;;;12.33;;
15102;SDS011;7652;53.584;9.998;2022-12-13T03:19:01;20.43;;;11.60;;
15102;SDS011;7652;53.584;9.998;2022-12-13T03:22:06;23.43;;;12.77;;
15102;SDS011;7652;53.584;9.998;2022-12-13T03:25:09;30.03;;;12.47;;
15102;SDS011;7652;53.584;9.998;2022-12-13T03:28:12;25.70;;;12.37;;
15102;SDS011;7652;53.584;9.998;2022-12-13T03:31:15;23.33;;;12.17;;
15102;SDS011;7652;53.584;9.998;2022-12-13T03:34:20;25.73;;;12.50;;
15102;SDS011;7652;53.584;9.998;2022-12-13T03:37:24;28.27;;;13.43;;
15102;SDS011;7652;53.584;9.998;2022-12-13T03:40:27;23.53;;;12.40;;
15102;SDS011;7652;53.584;9.998;2022-12-13T03:43:31;25.50;;;12.57;;
15102;SDS011;7652;53.584;9.998;2022-12-13T03:46:35;25.47;;;12.63;;
15102;SDS011;7652;53.584;9.998;2022-12-13T03:49:39;28.97;;;14.50;;
15102;SDS011;7652;53.584;9.998;2022-12-13T03:52:42;25.57;;;12.93;;
15102;SDS011;7652;53.584;9.998;2022-12-13T03:55:47;27.00;;;13.43;;
15102;SDS011;7652;53.584;9.998;2022-12-13T03:58:50;25.93;;;13.00;;
15102;SDS011;7652;53.584;9.998;2022-12-13T04:01:53;32.43;;;13.90;;
15102;SDS011;7652;53.584;9.998;2022-12-13T04:04:58;29.10;;;13.10;;
15102;SDS011;7652;53.584;9.998;2022-12-13T04:08:01;25.77;;;12.77;;
15102;SDS011;7652;53.584;9.998;2022-12-13T04:11:22;27.10;;;12.70;;
15102;SDS011;7652;53.584;9.998;2022-12-13T04:14:43;27.63;;;12.93;;
15102;SDS011;7652;53.584;9.998;2022-12-13T04:17:46;26.10;;;11.87;;
15102;SDS011;7652;53.584;9.998;2022-12-13T04:20:53;23.50;;;13.40;;
15102;SDS011;7652;53.584;9.998;2022-12-13T04:23:56;22.60;;;11.00;;
15102;SDS011;7652;53.584;9.998;2022-12-13T04:27:01;22.03;;;12.37;;
15102;SDS011;7652;53.584;9.998;2022-12-13T04:30:05;25.77;;;12.43;;
15102;SDS011;7652;53.584;9.998;2022-12-13T04:33:09;22.10;;;11.83;;
15102;SDS011;7652;53.584;9.998;2022-12-13T04:36:13;24.87;;;12.30;;
15102;SDS011;7652;53.584;9.998;2022-12-13T04:39:33;26.10;;;12.60;;
15102;SDS011;7652;53.584;9.998;2022-12-13T04:42:36;25.80;;;12.93;;
15102;SDS011;7652;53.584;9.998;2022-12-13T04:45:39;25.20;;;11.93;;
15102;SDS011;7652;53.584;9.998;2022-12-13T04:48:42;25.70;;;11.90;;
15102;SDS011;7652;53.584;9.998;2022-12-13T04:51:47;28.40;;;12.73;;
15102;SDS011;7652;53.584;9.998;2022-12-13T04:54:50;22.00;;;12.00;;
15102;SDS011;7652;53.584;9.998;2022-12-13T04:57:56;25.10;;;11.77;;
15102;SDS011;7652;53.584;9.998;2022-12-13T05:00:59;27.50;;;12.40;;
15102;SDS011;7652;53.584;9.998;2022-12-13T05:04:02;23.73;;;11.33;;
15102;SDS011;7652;53.584;9.998;2022-12-13T05:07:07;26.57;;;12.63;;
15102;SDS011;7652;53.584;9.998;2022-12-13T05:10:10;26.93;;;11.90;;
15102;SDS011;7652;53.584;9.998;2022-12-13T05:13:33;25.67;;;12.03;;
15102;SDS011;7652;53.584;9.998;2022-12-13T05:16:36;23.57;;;12.20;;
15102;SDS011;7652;53.584;9.998;2022-12-13T05:19:39;26.90;;;12.10;;
15102;SDS011;7652;53.584;9.998;2022-12-13T05:22:44;31.27;;;13.47;;
15102;SDS011;7652;53.584;9.998;2022-12-13T05:25:47;24.30;;;12.53;;
15102;SDS011;7652;53.584;9.998;2022-12-13T05:28:50;24.20;;;11.97;;
15102;SDS011;7652;53.584;9.998;2022-12-13T05:31:53;23.77;;;10.77;;
15102;SDS011;7652;53.584;9.998;2022-12-13T05:34:56;20.50;;;10.83;;
15102;SDS011;7652;53.584;9.998;2022-12-13T05:38:00;29.87;;;12.20;;
15102;SDS011;7652;53.584;9.998;2022-12-13T05:41:04;19.23;;;10.47;;
15102;SDS011;7652;53.584;9.998;2022-12-13T05:44:07;26.27;;;11.53;;
15102;SDS011;7652;53.584;9.998;2022-12-13T05:47:10;21.83;;;11.00;;
15102;SDS011;7652;53.584;9.998;2022-12-13T05:50:14;20.63;;;9.93;;
15102;SDS011;7652;53.584;9.998;2022-12-13T05:53:20;24.50;;;11.53;;
15102;SDS011;7652;53.584;9.998;2022-12-13T05:56:31;19.53;;;10.47;;
15102;SDS011;7652;53.584;9.998;2022-12-13T05:59:34;21.40;;;10.77;;
15102;SDS011;7652;53.584;9.998;2022-12-13T06:02:37;23.03;;;11.00;;
15102;SDS011;7652;53.584;9.998;2022-12-13T06:05:41;27.77;;;11.50;;
15102;SDS011;7652;53.584;9.998;2022-12-13T06:08:46;21.77;;;10.90;;
15102;SDS011;7652;53.584;9.998;2022-12-13T06:11:49;23.20;;;11.50;;
15102;SDS011;7652;53.584;9.998;2022-12-13T06:15:01;27.73;;;11.53;;
15102;SDS011;7652;53.584;9.998;2022-12-13T06:18:22;20.10;;;10.40;;
15102;SDS011;7652;53.584;9.998;2022-12-13T06:21:25;23.00;;;11.43;;
15102;SDS011;7652;53.584;9.998;2022-12-13T06:24:29;24.30;;;10.93;;
15102;SDS011;7652;53.584;9.998;2022-12-13T06:27:32;25.30;;;11.43;;
15102;SDS011;7652;53.584;9.998;2022-12-13T06:30:36;21.63;;;11.40;;
15102;SDS011;7652;53.584;9.998;2022-12-13T06:33:43;20.33;;;11.17;;
15102;SDS011;7652;53.584;9.998;2022-12-13T06:36:46;24.93;;;11.17;;
15102;SDS011;7652;53.584;9.998;2022-12-13T06:39:50;20.87;;;10.47;;
15102;SDS011;7652;53.584;9.998;2022-12-13T06:42:53;17.77;;;9.87;;
15102;SDS011;7652;53.584;9.998;2022-12-13T06:45:56;19.40;;;9.50;;
15102;SDS011;7652;53.584;9.998;2022-12-13T06:48:59;17.60;;;9.60;;
15102;SDS011;7652;53.584;9.998;2022-12-13T06:52:03;22.43;;;10.60;;
15102;SDS011;7652;53.584;9.998;2022-12-13T06:55:08;20.97;;;10.17;;
15102;SDS011;7652;53.584;9.998;2022-12-13T06:58:11;23.80;;;11.00;;
15102;SDS011;7652;53.584;9.998;2022-12-13T07:01:15;20.23;;;9.83;;
15102;SDS011;7652;53.584;9.998;2022-12-13T07:04:25;21.70;;;10.87;;
15102;SDS011;7652;53.584;9.998;2022-12-13T07:07:30;17.67;;;8.87;;
15102;SDS011;7652;53.584;9.998;2022-12-13T07:10:36;22.90;;;10.43;;
15102;SDS011;7652;53.584;9.998;2022-12-13T07:13:40;22.77;;;9.93;;
15102;SDS011;7652;53.584;9.998;2022-12-13T07:16:44;20.40;;;9.03;;
15102;SDS011;7652;53.584;9.998;2022-12-13T07:19:47;23.47;;;10.57;;
15102;SDS011;7652;53.584;9.998;2022-12-13T07:22:50;19.20;;;9.83;;
15102;SDS011;7652;53.584;9.998;2022-12-13T07:26:00;19.47;;;9.57;;
15102;SDS011;7652;53.584;9.998;2022-12-13T07:29:04;22.53;;;10.63;;
15102;SDS011;7652;53.584;9.998;2022-12-13T07:32:07;22.30;;;10.63;;
15102;SDS011;7652;53.584;9.998;2022-12-13T07:35:10;21.93;;;10.30;;
15102;SDS011;7652;53.584;9.998;2022-12-13T07:38:13;20.87;;;9.83;;
15102;SDS011;7652;53.584;9.998;2022-12-13T07:41:17;23.43;;;10.37;;
15102;SDS011;7652;53.584;9.998;2022-12-13T07:44:24;19.83;;;10.77;;
15102;SDS011;7652;53.584;9.998;2022-12-13T07:47:28;23.37;;;9.93;;
15102;SDS011;7652;53.584;9.998;2022-12-13T07:50:31;21.27;;;10.10;;
15102;SDS011;7652;53.584;9.998;2022-12-13T07:53:38;17.43;;;9.20;;
15102;SDS011;7652;53.584;9.998;2022-12-13T07:56:43;16.73;;;9.17;;
15102;SDS011;7652;53.584;9.998;2022-12-13T07:59:46;20.60;;;9.27;;
15102;SDS011;7652;53.584;9.998;2022-12-13T08:02:49;21.90;;;10.07;;
15102;SDS011;7652;53.584;9.998;2022-12-13T08:05:59;20.77;;;9.57;;
15102;SDS011;7652;53.584;9.998;2022-12-13T08:09:03;23.77;;;11.00;;
15102;SDS011;7652;53.584;9.998;2022-12-13T08:12:08;18.73;;;8.80;;
15102;SDS011;7652;53.584;9.998;2022-12-13T08:15:11;20.30;;;10.00;;
15102;SDS011;7652;53.584;9.998;2022-12-13T08:18:14;23.47;;;10.53;;
15102;SDS011;7652;53.584;9.998;2022-12-13T08:21:17;22.60;;;10.33;;
15102;SDS011;7652;53.584;9.998;2022-12-13T08:24:40;22.17;;;11.30;;
15102;SDS011;7652;53.584;9.998;2022-12-13T08:27:45;18.40;;;9.60;;
15102;SDS011;7652;53.584;9.998;2022-12-13T08:30:48;21.30;;;10.23;;
15102;SDS011;7652;53.584;9.998;2022-12-13T08:33:52;18.67;;;10.20;;
15102;SDS011;7652;53.584;9.998;2022-12-13T08:36:55;20.23;;;10.07;;
15102;SDS011;7652;53.584;9.998;2022-12-13T08:40:03;20.53;;;9.40;;
15102;SDS011;7652;53.584;9.998;2022-12-13T08:43:09;22.07;;;9.90;;
15102;SDS011;7652;53.584;9.998;2022-12-13T08:46:12;20.43;;;10.50;;
15102;SDS011;7652;53.584;9.998;2022-12-13T08:49:16;22.00;;;9.70;;
15102;SDS011;7652;53.584;9.998;2022-12-13T08:52:19;17.97;;;9.77;;
15102;SDS011;7652;53.584;9.998;2022-12-13T08:55:23;22.53;;;10.47;;
15102;SDS011;7652;53.584;9.998;2022-12-13T08:58:34;16.90;;;9.70;;
15102;SDS011;7652;53.584;9.998;2022-12-13T09:01:37;19.40;;;9.20;;
15102;SDS011;7652;53.584;9.998;2022-12-13T09:04:40;22.23;;;10.33;;
15102;SDS011;7652;53.584;9.998;2022-12-13T09:07:43;22.60;;;10.03;;
15102;SDS011;7652;53.584;9.998;2022-12-13T09:10:54;21.10;;;9.47;;
15102;SDS011;7652;53.584;9.998;2022-12-13T09:14:01;20.73;;;9.97;;
15102;SDS011;7652;53.584;9.998;2022-12-13T09:17:05;19.03;;;10.10;;
15102;SDS011;7652;53.584;9.998;2022-12-13T09:20:15;18.30;;;9.43;;
15102;SDS011;7652;53.584;9.998;2022-12-13T09:23:30;20.60;;;9.23;;
15102;SDS011;7652;53.584;9.998;2022-12-13T09:26:36;18.33;;;9.70;;
15102;SDS011;7652;53.584;9.998;2022-12-13T09:29:40;19.90;;;9.63;;
15102;SDS011;7652;53.584;9.998;2022-12-13T09:32:43;22.27;;;10.07;;
15102;SDS011;7652;53.584;9.998;2022-12-13T09:35:50;21.07;;;9.97;;
15102;SDS011;7652;53.584;9.998;2022-12-13T09:38:53;21.50;;;10.90;;
15102;SDS011;7652;53.584;9.998;2022-12-13T09:41:59;18.30;;;9.53;;
15102;SDS011;7652;53.584;9.998;2022-12-13T09:45:12;24.03;;;11.53;;
15102;SDS011;7652;53.584;9.998;2022-12-13T09:48:32;19.93;;;9.23;;
15102;SDS011;7652;53.584;9.998;2022-12-13T09:51:36;21.70;;;8.97;;
15102;SDS011;7652;53.584;9.998;2022-12-13T09:54:45;17.50;;;9.23;;
15102;SDS011;7652;53.584;9.998;2022-12-13T09:57:49;17.30;;;9.57;;
15102;SDS011;7652;53.584;9.998;2022-12-13T10:00:55;18.07;;;9.13;;
15102;SDS011;7652;53.584;9.998;2022-12-13T10:03:59;23.07;;;8.97;;
15102;SDS011;7652;53.584;9.998;2022-12-13T10:07:04;21.30;;;9.33;;
15102;SDS011;7652;53.584;9.998;2022-12-13T10:10:13;17.70;;;8.70;;
15102;SDS011;7652;53.584;9.998;2022-12-13T10:13:17;19.73;;;9.60;;
15102;SDS011;7652;53.584;9.998;2022-12-13T10:16:25;20.33;;;9.83;;
15102;SDS011;7652;53.584;9.998;2022-12-13T10:19:38;18.67;;;8.53;;
15102;SDS011;7652;53.584;9.998;2022-12-13T10:22:42;15.80;;;8.50;;
15102;SDS011;7652;53.584;9.998;2022-12-13T10:26:07;14.57;;;8.47;;
15102;SDS011;7652;53.584;9.998;2022-12-13T10:29:24;17.00;;;8.73;;
15102;SDS011;7652;53.584;9.998;2022-12-13T10:32:28;16.03;;;9.20;;
15102;SDS011;7652;53.584;9.998;2022-12-13T10:35:38;19.50;;;9.23;;
15102;SDS011;7652;53.584;9.998;2022-12-13T10:38:43;15.60;;;8.37;;
15102;SDS011;7652;53.584;9.998;2022-12-13T10:41:47;18.30;;;8.17;;
15102;SDS011;7652;53.584;9.998;2022-12-13T10:45:07;16.47;;;8.70;;
15102;SDS011;7652;53.584;9.998;2022-12-13T10:48:17;16.27;;;8.07;;
15102;SDS011;7652;53.584;9.998;2022-12-13T10:51:22;14.93;;;8.50;;
15102;SDS011;7652;53.584;9.998;2022-12-13T10:54:25;15.20;;;8.50;;
15102;SDS011;7652;53.584;9.998;2022-12-13T10:57:48;19.23;;;9.07;;
15102;SDS011;7652;53.584;9.998;2022-12-13T11:00:53;17.50;;;8.73;;
15102;SDS011;7652;53.584;9.998;2022-12-13T11:04:20;19.20;;;10.00;;
15102;SDS011;7652;53.584;9.998;2022-12-13T11:07:29;13.83;;;7.97;;
15102;SDS011;7652;53.584;9.998;2022-12-13T11:10:33;25.90;;;9.87;;
15102;SDS011;7652;53.584;9.998;2022-12-13T11:13:39;18.90;;;8.27;;
15102;SDS011;7652;53.584;9.998;2022-12-13T11:16:48;17.07;;;8.77;;
15102;SDS011;7652;53.584;9.998;2022-12-13T11:19:54;20.43;;;9.70;;
15102;SDS011;7652;53.584;9.998;2022-12-13T11:22:59;16.40;;;8.87;;
15102;SDS011;7652;53.584;9.998;2022-12-13T11:26:07;16.37;;;9.27;;
15102;SDS011;7652;53.584;9.998;2022-12-13T11:29:16;18.27;;;9.40;;
15102;SDS011;7652;53.584;9.998;2022-12-13T11:32:39;16.60;;;8.73;;
15102;SDS011;7652;53.584;9.998;2022-12-13T11:36:04;18.07;;;9.37;;
15102;SDS011;7652;53.584;9.998;2022-12-13T11:39:19;19.07;;;8.97;;
15102;SDS011;7652;53.584;9.998;2022-12-13T11:42:27;13.97;;;8.20;;
15102;SDS011;7652;53.584;9.998;2022-12-13T11:45:35;16.57;;;8.40;;
15102;SDS011;7652;53.584;9.998;2022-12-13T11:48:43;14.00;;;8.13;;
15102;SDS011;7652;53.584;9.998;2022-12-13T11:51:54;11.77;;;8.13;;
15102;SDS011;7652;53.584;9.998;2022-12-13T11:55:02;14.77;;;7.87;;
15102;SDS011;7652;53.584;9.998;2022-12-13T11:58:13;12.97;;;7.77;;
15102;SDS011;7652;53.584;9.998;2022-12-13T12:01:44;12.10;;;7.33;;
15102;SDS011;7652;53.584;9.998;2022-12-13T12:04:53;14.03;;;7.17;;
15102;SDS011;7652;53.584;9.998;2022-12-13T12:08:04;13.03;;;7.37;;
15102;SDS011;7652;53.584;9.998;2022-12-13T12:11:34;14.93;;;6.63;;
15102;SDS011;7652;53.584;9.998;2022-12-13T12:14:45;13.60;;;7.50;;
15102;SDS011;7652;53.584;9.998;2022-12-13T12:17:55;13.17;;;7.87;;
15102;SDS011;7652;53.584;9.998;2022-12-13T12:21:02;12.93;;;7.27;;
15102;SDS011;7652;53.584;9.998;2022-12-13T12:24:18;13.83;;;7.50;;
15102;SDS011;7652;53.584;9.998;2022-12-13T12:27:33;12.77;;;7.30;;
15102;SDS011;7652;53.584;9.998;2022-12-13T12:30:43;13.67;;;7.57;;
15102;SDS011;7652;53.584;9.998;2022-12-13T12:33:56;15.27;;;7.27;;
15102;SDS011;7652;53.584;9.998;2022-12-13T12:37:15;15.03;;;7.47;;
15102;SDS011;7652;53.584;9.998;2022-12-13T12:40:40;14.50;;;7.03;;
15102;SDS011;7652;53.584;9.998;2022-12-13T12:44:21;13.57;;;7.40;;
15102;SDS011;7652;53.584;9.998;2022-12-13T12:47:36;15.27;;;7.83;;
15102;SDS011;7652;53.584;9.998;2022-12-13T12:51:09;16.10;;;7.80;;
15102;SDS011;7652;53.584;9.998;2022-12-13T12:54:23;12.30;;;7.27;;
15102;SDS011;7652;53.584;9.998;2022-12-13T12:57:38;13.83;;;7.73;;
15102;SDS011;7652;53.584;9.998;2022-12-13T13:00:48;15.40;;;7.90;;
15102;SDS011;7652;53.584;9.998;2022-12-13T13:04:00;13.60;;;7.80;;
15102;SDS011;7652;53.584;9.998;2022-12-13T13:07:09;12.67;;;7.50;;
15102;SDS011;7652;53.584;9.998;2022-12-13T13:10:24;11.93;;;7.13;;
15102;SDS011;7652;53.584;9.998;2022-12-13T13:13:32;15.20;;;8.63;;
15102;SDS011;7652;53.584;9.998;2022-12-13T13:16:47;16.80;;;7.70;;
15102;SDS011;7652;53.584;9.998;2022-12-13T13:19:52;17.40;;;8.70;;
15102;SDS011;7652;53.584;9.998;2022-12-13T13:23:11;13.63;;;8.03;;
15102;SDS011;7652;53.584;9.998;2022-12-13T13:26:36;17.37;;;8.90;;
15102;SDS011;7652;53.584;9.998;2022-12-13T13:29:44;19.23;;;8.80;;
15102;SDS011;7652;53.584;9.998;2022-12-13T13:32:47;18.40;;;9.03;;
15102;SDS011;7652;53.584;9.998;2022-12-13T13:35:51;19.27;;;8.70;;
15102;SDS011;7652;53.584;9.998;2022-12-13T13:38:57;13.97;;;9.27;;
15102;SDS011;7652;53.584;9.998;2022-12-13T13:42:15;14.07;;;8.67;;
15102;SDS011;7652;53.584;9.998;2022-12-13T13:45:22;14.07;;;8.67;;
15102;SDS011;7652;53.584;9.998;2022-12-13T13:48:45;17.17;;;9.33;;
15102;SDS011;7652;53.584;9.998;2022-12-13T13:52:02;18.40;;;9.23;;
15102;SDS011;7652;53.584;9.998;2022-12-13T13:55:35;20.03;;;10.30;;
15102;SDS011;7652;53.584;9.998;2022-12-13T14:10:36;19.17;;;10.50;;
15102;SDS011;7652;53.584;9.998;2022-12-13T14:18:14;20.87;;;9.77;;
15102;SDS011;7652;53.584;9.998;2022-12-13T14:21:48;20.30;;;9.93;;
15102;SDS011;7652;53.584;9.998;2022-12-13T14:28:33;22.00;;;11.30;;
15102;SDS011;7652;53.584;9.998;2022-12-13T14:31:46;18.77;;;10.30;;
15102;SDS011;7652;53.584;9.998;2022-12-13T14:34:50;21.90;;;11.40;;
15102;SDS011;7652;53.584;9.998;2022-12-13T14:37:54;18.70;;;10.10;;
15102;SDS011;7652;53.584;9.998;2022-12-13T14:41:01;18.87;;;10.73;;
15102;SDS011;7652;53.584;9.998;2022-12-13T14:44:12;18.10;;;10.50;;
15102;SDS011;7652;53.584;9.998;2022-12-13T14:47:16;22.47;;;11.37;;
15102;SDS011;7652;53.584;9.998;2022-12-13T14:50:20;17.90;;;10.60;;
15102;SDS011;7652;53.584;9.998;2022-12-13T14:53:26;21.47;;;11.60;;
15102;SDS011;7652;53.584;9.998;2022-12-13T14:56:33;20.30;;;11.50;;
15102;SDS011;7652;53.584;9.998;2022-12-13T14:59:37;21.50;;;11.67;;
15102;SDS011;7652;53.584;9.998;2022-12-13T15:02:51;22.67;;;11.63;;
15102;SDS011;7652;53.584;9.998;2022-12-13T15:05:56;18.97;;;10.47;;
15102;SDS011;7652;53.584;9.998;2022-12-13T15:09:01;20.73;;;11.57;;
15102;SDS011;7652;53.584;9.998;2022-12-13T15:12:09;18.87;;;10.00;;
15102;SDS011;7652;53.584;9.998;2022-12-13T15:15:26;26.73;;;11.83;;
15102;SDS011;7652;53.584;9.998;2022-12-13T15:18:31;23.43;;;11.93;;
15102;SDS011;7652;53.584;9.998;2022-12-13T15:21:36;23.83;;;13.13;;
15102;SDS011;7652;53.584;9.998;2022-12-13T15:24:39;25.30;;;14.23;;
15102;SDS011;7652;53.584;9.998;2022-12-13T15:27:48;26.43;;;12.47;;
15102;SDS011;7652;53.584;9.998;2022-12-13T15:30:53;26.07;;;13.33;;
15102;SDS011;7652;53.584;9.998;2022-12-13T15:37:39;26.03;;;12.83;;
15102;SDS011;7652;53.584;9.998;2022-12-13T15:40:48;25.00;;;13.37;;
15102;SDS011;7652;53.584;9.998;2022-12-13T15:43:53;26.10;;;13.10;;
15102;SDS011;7652;53.584;9.998;2022-12-13T15:47:00;21.30;;;11.90;;
15102;SDS011;7652;53.584;9.998;2022-12-13T15:50:05;19.70;;;11.13;;
15102;SDS011;7652;53.584;9.998;2022-12-13T15:53:16;24.90;;;12.57;;
15102;SDS011;7652;53.584;9.998;2022-12-13T15:56:28;24.53;;;11.83;;
15102;SDS011;7652;53.584;9.998;2022-12-13T15:59:34;23.27;;;11.70;;
15102;SDS011;7652;53.584;9.998;2022-12-13T16:02:43;24.03;;;12.43;;
15102;SDS011;7652;53.584;9.998;2022-12-13T16:05:52;19.20;;;11.43;;
15102;SDS011;7652;53.584;9.998;2022-12-13T16:08:57;21.77;;;11.83;;
15102;SDS011;7652;53.584;9.998;2022-12-13T16:12:02;24.87;;;12.30;;
15102;SDS011;7652;53.584;9.998;2022-12-13T16:15:14;27.10;;;12.47;;
15102;SDS011;7652;53.584;9.998;2022-12-13T16:18:30;24.67;;;12.33;;
15102;SDS011;7652;53.584;9.998;2022-12-13T16:21:34;27.77;;;13.93;;
15102;SDS011;7652;53.584;9.998;2022-12-13T16:24:37;28.80;;;13.70;;
15102;SDS011;7652;53.584;9.998;2022-12-13T16:27:41;23.13;;;13.77;;
15102;SDS011;7652;53.584;9.998;2022-12-13T16:31:03;26.20;;;13.80;;
15102;SDS011;7652;53.584;9.998;2022-12-13T16:34:15;26.07;;;12.90;;
15102;SDS011;7652;53.584;9.998;2022-12-13T16:37:26;24.70;;;13.67;;
15102;SDS011;7652;53.584;9.998;2022-12-13T16:40:29;26.43;;;14.63;;
15102;SDS011;7652;53.584;9.998;2022-12-13T16:43:34;29.10;;;14.53;;
15102;SDS011;7652;53.584;9.998;2022-12-13T16:46:42;27.03;;;13.27;;
15102;SDS011;7652;53.584;9.998;2022-12-13T16:50:08;29.37;;;13.37;;
15102;SDS011;7652;53.584;9.998;2022-12-13T16:53:14;30.90;;;15.47;;
15102;SDS011;7652;53.584;9.998;2022-12-13T16:56:18;25.90;;;13.00;;
15102;SDS011;7652;53.584;9.998;2022-12-13T16:59:23;28.50;;;14.70;;
15102;SDS011;7652;53.584;9.998;2022-12-13T17:02:28;29.63;;;14.10;;
15102;SDS011;7652;53.584;9.998;2022-12-13T17:05:32;32.93;;;14.50;;
15102;SDS011;7652;53.584;9.998;2022-12-13T17:08:36;31.53;;;15.53;;
15102;SDS011;7652;53.584;9.998;2022-12-13T17:11:39;27.23;;;14.33;;
15102;SDS011;7652;53.584;9.998;2022-12-13T17:14:42;36.97;;;15.37;;
15102;SDS011;7652;53.584;9.998;2022-12-13T17:17:47;25.03;;;13.73;;
15102;SDS011;7652;53.584;9.998;2022-12-13T17:20:50;32.30;;;15.17;;
15102;SDS011;7652;53.584;9.998;2022-12-13T17:24:00;29.70;;;14.23;;
15102;SDS011;7652;53.584;9.998;2022-12-13T17:27:03;28.30;;;14.97;;
15102;SDS011;7652;53.584;9.998;2022-12-13T17:30:07;23.87;;;14.10;;
15102;SDS011;7652;53.584;9.998;2022-12-13T17:33:15;29.63;;;14.03;;
15102;SDS011;7652;53.584;9.998;2022-12-13T17:36:18;30.23;;;14.93;;
15102;SDS011;7652;53.584;9.998;2022-12-13T17:39:21;28.00;;;14.50;;
15102;SDS011;7652;53.584;9.998;2022-12-13T17:42:25;27.70;;;14.77;;
15102;SDS011;7652;53.584;9.998;2022-12-13T17:45:28;26.73;;;14.03;;
15102;SDS011;7652;53.584;9.998;2022-12-13T17:48:33;31.63;;;14.63;;
15102;SDS011;7652;53.584;9.998;2022-12-13T17:51:41;26.63;;;13.40;;
15102;SDS011;7652;53.584;9.998;2022-12-13T17:54:51;28.77;;;13.70;;
15102;SDS011;7652;53.584;9.998;2022-12-13T17:57:54;26.70;;;13.47;;
15102;SDS011;7652;53.584;9.998;2022-12-13T18:01:08;30.37;;;13.83;;
15102;SDS011;7652;53.584;9.998;2022-12-13T18:04:14;27.77;;;13.83;;
15102;SDS011;7652;53.584;9.998;2022-12-13T18:07:17;29.20;;;15.20;;
15102;SDS011;7652;53.584;9.998;2022-12-13T18:10:22;31.10;;;15.77;;
15102;SDS011;7652;53.584;9.998;2022-12-13T18:13:30;30.17;;;15.27;;
15102;SDS011;7652;53.584;9.998;2022-12-13T18:16:33;28.53;;;15.03;;
15102;SDS011;7652;53.584;9.998;2022-12-13T18:19:41;31.37;;;14.97;;
15102;SDS011;7652;53.584;9.998;2022-12-13T18:22:44;33.17;;;14.70;;
15102;SDS011;7652;53.584;9.998;2022-12-13T18:25:51;29.90;;;15.00;;
15102;SDS011;7652;53.584;9.998;2022-12-13T18:29:00;28.57;;;14.97;;
15102;SDS011;7652;53.584;9.998;2022-12-13T18:32:03;31.70;;;14.90;;
15102;SDS011;7652;53.584;9.998;2022-12-13T18:35:08;26.90;;;14.17;;
15102;SDS011;7652;53.584;9.998;2022-12-13T18:38:11;32.03;;;15.40;;
15102;SDS011;7652;53.584;9.998;2022-12-13T18:41:14;29.40;;;14.80;;
15102;SDS011;7652;53.584;9.998;2022-12-13T18:44:19;35.77;;;14.90;;
15102;SDS011;7652;53.584;9.998;2022-12-13T18:47:23;34.57;;;15.43;;
15102;SDS011;7652;53.584;9.998;2022-12-13T18:50:28;27.13;;;14.50;;
15102;SDS011;7652;53.584;9.998;2022-12-13T18:53:31;28.23;;;15.07;;
15102;SDS011;7652;53.584;9.998;2022-12-13T18:56:35;32.13;;;15.00;;
15102;SDS011;7652;53.584;9.998;2022-12-13T18:59:38;34.07;;;16.17;;
15102;SDS011;7652;53.584;9.998;2022-12-13T19:02:41;29.40;;;14.43;;